Time;durP1;ratioP1;P1;durP2;ratioP2;P2;SDS_P1;SDS_P2;PMS_P1;PMS_P2;Temp;Humidity;BMP_temperature;BMP_pressure;BME280_temperature;BME280_humidity;BME280_pressure;Samples;Min_cycle;Max_cycle;Signal;HPM_P1;HPM_P2
2022/04/15 05:02:36;;;;;;;5.55;3.00;;;10.80;99.90;;;;;;4892423;23;20099;-89
2022/04/15 05:05:04;;;;;;;5.10;3.08;;;10.90;99.90;;;;;;4876763;29;20084;-89
2022/04/15 05:07:33;;;;;;;6.53;2.97;;;10.90;99.90;;;;;;4883414;29;20056;-91
2022/04/15 05:10:01;;;;;;;6.10;3.00;;;10.90;99.90;;;;;;4886672;29;20132;-91
2022/04/15 05:12:28;;;;;;;6.18;2.80;;;10.80;99.90;;;;;;4882464;29;20531;-93
2022/04/15 05:14:55;;;;;;;5.75;2.70;;;11.00;99.90;;;;;;4879534;29;20447;-91
2022/04/15 05:17:22;;;;;;;5.47;2.95;;;10.80;99.90;;;;;;4886193;29;20085;-90
2022/04/15 05:19:51;;;;;;;5.97;3.17;;;10.70;99.90;;;;;;4887649;29;20069;-90
2022/04/15 05:22:18;;;;;;;5.13;3.30;;;10.50;99.90;;;;;;4885808;29;20085;-90
2022/04/15 05:24:45;;;;;;;5.10;3.20;;;10.50;99.90;;;;;;4882192;29;20570;-88
2022/04/15 05:27:13;;;;;;;21.67;11.30;;;10.70;99.90;;;;;;4882098;29;20087;-89
2022/04/15 05:29:40;;;;;;;48.95;25.13;;;10.90;99.90;;;;;;4862329;29;20053;-90
2022/04/15 05:32:10;;;;;;;26.67;14.43;;;11.00;99.90;;;;;;4869424;29;20496;-87
2022/04/15 05:34:38;;;;;;;16.75;9.05;;;10.90;99.90;;;;;;4882625;29;20061;-89
2022/04/15 05:37:07;;;;;;;20.55;11.05;;;10.90;99.90;;;;;;4868677;29;20053;-93
2022/04/15 05:39:34;;;;;;;18.00;9.65;;;11.00;99.90;;;;;;4878365;29;20710;-86
2022/04/15 05:42:03;;;;;;;12.52;6.68;;;11.00;99.90;;;;;;4879067;29;20045;-92
2022/04/15 05:44:33;;;;;;;7.63;4.38;;;11.20;99.90;;;;;;5026097;24;20136;-79
2022/04/15 05:47:00;;;;;;;7.18;3.85;;;11.30;99.90;;;;;;4880121;29;20041;-81
2022/04/15 05:49:28;;;;;;;6.20;3.50;;;11.40;99.90;;;;;;4871954;29;20140;-81
2022/04/15 05:51:56;;;;;;;5.78;3.78;;;11.40;99.90;;;;;;4871069;29;20512;-81
2022/04/15 05:54:24;;;;;;;6.00;3.30;;;11.40;99.90;;;;;;4869006;29;20053;-81
2022/04/15 05:56:52;;;;;;;6.95;3.85;;;11.60;99.90;;;;;;4875331;29;20140;-81
2022/04/15 05:59:21;;;;;;;6.55;3.80;;;11.40;99.90;;;;;;4867937;29;20053;-81
2022/04/15 06:01:50;;;;;;;5.30;3.28;;;11.50;99.90;;;;;;4878384;29;20049;-81
2022/04/15 06:04:17;;;;;;;5.72;3.35;;;11.50;99.90;;;;;;4875236;29;20132;-81
2022/04/15 06:06:47;;;;;;;6.70;3.55;;;11.40;99.90;;;;;;4871956;29;20049;-81
2022/04/15 06:09:14;;;;;;;5.25;3.17;;;11.50;99.90;;;;;;4874586;29;20049;-81
2022/04/15 06:11:43;;;;;;;6.32;3.80;;;11.60;99.90;;;;;;4870541;29;20487;-81
2022/04/15 06:14:10;;;;;;;6.15;3.60;;;11.30;99.90;;;;;;4870336;29;20053;-81
2022/04/15 06:16:39;;;;;;;6.65;3.63;;;11.10;99.90;;;;;;4872252;29;20137;-81
2022/04/15 06:19:06;;;;;;;7.85;3.85;;;11.30;99.90;;;;;;4878426;29;20137;-80
2022/04/15 06:21:34;;;;;;;5.50;3.78;;;11.40;99.90;;;;;;4871689;29;20050;-81
2022/04/15 06:24:01;;;;;;;6.22;3.83;;;11.50;99.90;;;;;;4862523;29;20057;-81
2022/04/15 06:26:28;;;;;;;7.63;4.28;;;11.50;99.90;;;;;;4870111;29;20045;-80
2022/04/15 06:28:56;;;;;;;5.63;3.90;;;11.70;99.90;;;;;;4867874;29;20055;-80
2022/04/15 06:31:23;;;;;;;6.65;4.45;;;11.80;99.90;;;;;;4868788;29;20053;-82
2022/04/15 06:33:52;;;;;;;8.50;4.30;;;11.90;99.90;;;;;;4872362;29;20052;-81
2022/04/15 06:36:19;;;;;;;7.80;4.57;;;11.90;99.90;;;;;;4868067;29;20423;-80
2022/04/15 06:38:46;;;;;;;7.32;4.40;;;11.90;99.90;;;;;;4875920;29;20053;-80
2022/04/15 06:41:13;;;;;;;6.35;4.13;;;12.00;99.90;;;;;;4867928;29;20046;-82
2022/04/15 06:43:41;;;;;;;6.00;4.03;;;12.20;99.90;;;;;;4871105;29;20537;-79
2022/04/15 06:46:09;;;;;;;6.45;4.47;;;12.20;99.90;;;;;;4865249;29;20049;-81
2022/04/15 06:48:36;;;;;;;8.02;5.00;;;12.20;99.90;;;;;;4866275;29;20049;-81
2022/04/15 06:51:03;;;;;;;7.35;4.50;;;12.20;99.90;;;;;;4868382;29;20045;-82
2022/04/15 06:53:30;;;;;;;8.05;4.70;;;12.30;99.90;;;;;;4871638;29;20059;-80
2022/04/15 06:55:58;;;;;;;8.35;5.15;;;12.40;99.90;;;;;;4864149;29;20128;-80
2022/04/15 06:58:25;;;;;;;7.40;4.75;;;12.50;99.90;;;;;;4863052;29;20095;-80
2022/04/15 07:00:53;;;;;;;8.98;4.90;;;12.60;99.90;;;;;;4877618;29;20049;-81
2022/04/15 07:03:21;;;;;;;9.40;4.30;;;12.60;99.90;;;;;;4877300;29;20132;-81
2022/04/15 07:05:48;;;;;;;7.68;4.82;;;12.70;99.90;;;;;;4871029;29;20049;-81
2022/04/15 07:08:16;;;;;;;7.40;5.07;;;12.80;99.90;;;;;;4867163;29;20101;-82
2022/04/15 07:10:43;;;;;;;8.10;5.03;;;12.90;99.90;;;;;;4856085;29;20077;-81
2022/04/15 07:13:12;;;;;;;7.97;4.88;;;13.00;99.90;;;;;;4875049;29;20051;-81
2022/04/15 07:15:39;;;;;;;8.30;5.60;;;13.10;99.90;;;;;;4861921;29;20055;-81
2022/04/15 07:18:06;;;;;;;8.75;5.55;;;13.20;99.90;;;;;;4862969;29;20057;-81
2022/04/15 07:20:35;;;;;;;6.25;4.20;;;13.20;99.90;;;;;;4862443;29;20507;-79
2022/04/15 07:23:03;;;;;;;9.15;4.53;;;13.30;99.90;;;;;;4865568;29;20042;-79
2022/04/15 07:25:31;;;;;;;7.20;4.35;;;13.30;99.90;;;;;;4869877;29;20061;-80
2022/04/15 07:27:59;;;;;;;7.57;4.75;;;13.40;99.90;;;;;;4870013;29;20491;-80
2022/04/15 07:30:27;;;;;;;6.65;4.20;;;13.50;99.90;;;;;;4863991;29;20045;-80
2022/04/15 07:32:54;;;;;;;8.77;4.60;;;13.60;99.90;;;;;;4872069;29;20042;-79
2022/04/15 07:35:21;;;;;;;8.27;5.10;;;13.60;99.90;;;;;;4860833;29;20381;-78
2022/04/15 07:37:50;;;;;;;7.70;4.68;;;13.60;99.90;;;;;;4864265;29;20053;-80
2022/04/15 07:40:17;;;;;;;6.88;4.68;;;13.60;99.90;;;;;;4863296;29;20478;-80
2022/04/15 07:42:45;;;;;;;8.18;4.85;;;13.60;99.90;;;;;;4872028;29;20051;-80
2022/04/15 07:45:12;;;;;;;7.00;5.00;;;13.70;99.90;;;;;;4874480;29;20055;-80
2022/04/15 07:47:39;;;;;;;7.97;5.10;;;13.80;99.90;;;;;;4870108;29;20513;-80
2022/04/15 07:50:07;;;;;;;9.27;5.43;;;13.80;99.90;;;;;;4864582;29;20338;-81
2022/04/15 07:52:35;;;;;;;8.77;5.80;;;13.80;99.90;;;;;;4861327;29;20056;-81
2022/04/15 07:55:04;;;;;;;8.68;5.38;;;13.80;99.90;;;;;;4863470;29;20062;-81
2022/04/15 07:57:33;;;;;;;10.75;5.93;;;13.90;99.90;;;;;;4862381;29;20049;-80
2022/04/15 07:59:59;;;;;;;7.80;5.35;;;13.90;99.90;;;;;;4870946;29;20096;-80
2022/04/15 08:02:26;;;;;;;10.35;6.00;;;14.00;99.90;;;;;;4862334;29;20059;-81
2022/04/15 08:04:54;;;;;;;8.20;5.47;;;14.10;99.90;;;;;;4875866;29;20052;-81
2022/04/15 08:07:22;;;;;;;9.60;5.82;;;14.10;99.90;;;;;;4868869;29;20518;-82
2022/04/15 08:09:49;;;;;;;9.43;6.20;;;14.20;99.90;;;;;;4865172;29;20448;-81
2022/04/15 08:12:18;;;;;;;11.07;6.68;;;14.30;99.90;;;;;;4870212;29;20057;-82
2022/04/15 08:14:45;;;;;;;10.45;6.38;;;14.40;99.90;;;;;;4875728;29;20053;-83
2022/04/15 08:17:12;;;;;;;10.75;6.35;;;14.50;99.90;;;;;;4865582;29;20415;-82
2022/04/15 08:19:39;;;;;;;11.18;6.35;;;14.50;99.90;;;;;;4877530;29;20055;-83
2022/04/15 08:22:09;;;;;;;8.68;6.00;;;14.50;99.90;;;;;;4878204;29;20053;-83
2022/04/15 08:24:39;;;;;;;10.30;7.68;;;14.60;99.90;;;;;;4881376;29;20514;-83
2022/04/15 08:27:06;;;;;;;10.73;6.40;;;14.60;99.90;;;;;;4879135;29;20045;-82
2022/04/15 08:29:38;;;;;;;9.73;6.90;;;14.80;99.90;;;;;;4871267;29;20053;-82
2022/04/15 08:32:08;;;;;;;8.85;6.60;;;14.90;99.90;;;;;;4882037;29;20076;-82
2022/04/15 08:34:35;;;;;;;11.68;7.95;;;14.90;99.90;;;;;;4881841;29;20052;-82
2022/04/15 08:37:02;;;;;;;12.75;8.90;;;14.90;99.90;;;;;;4874134;29;20057;-79
2022/04/15 08:39:30;;;;;;;10.77;7.95;;;14.80;99.90;;;;;;4881189;29;20053;-78
2022/04/15 08:41:59;;;;;;;10.93;8.20;;;14.90;99.90;;;;;;4865851;29;20045;-79
2022/04/15 08:44:26;;;;;;;11.65;7.93;;;14.90;99.90;;;;;;4875101;29;20084;-83
2022/04/15 08:46:58;;;;;;;10.10;7.30;;;15.00;99.90;;;;;;4871096;29;20053;-80
2022/04/15 08:49:27;;;;;;;10.35;7.00;;;15.20;99.90;;;;;;4875122;29;20049;-80
2022/04/15 08:51:54;;;;;;;10.15;7.00;;;15.30;99.90;;;;;;4880984;29;20051;-80
2022/04/15 08:54:21;;;;;;;10.27;6.55;;;15.30;99.90;;;;;;4881290;29;20051;-80
2022/04/15 08:56:48;;;;;;;9.98;6.93;;;15.40;99.90;;;;;;4876815;29;20045;-78
2022/04/15 08:59:15;;;;;;;10.80;6.70;;;15.50;99.90;;;;;;4880397;29;20055;-78
2022/04/15 09:01:43;;;;;;;11.20;7.60;;;15.50;99.90;;;;;;4878074;29;20049;-84
2022/04/15 09:04:12;;;;;;;10.73;7.15;;;15.50;99.00;;;;;;4876539;29;20115;-81
2022/04/15 09:06:43;;;;;;;9.82;6.82;;;15.60;99.20;;;;;;4871106;29;20053;-81
2022/04/15 09:09:14;;;;;;;10.98;6.95;;;15.70;99.40;;;;;;4880497;29;20049;-82
2022/04/15 09:11:44;;;;;;;13.10;8.10;;;15.80;99.90;;;;;;4879883;29;20112;-83
2022/04/15 09:14:14;;;;;;;13.45;9.27;;;15.80;99.10;;;;;;4878551;29;20057;-83
2022/04/15 09:16:44;;;;;;;10.60;7.38;;;16.00;98.50;;;;;;4872002;29;20049;-82
2022/04/15 09:19:13;;;;;;;10.93;8.25;;;16.00;98.70;;;;;;4881088;29;20057;-81
2022/04/15 09:21:44;;;;;;;11.38;7.68;;;16.20;97.70;;;;;;4880510;29;20539;-88
2022/04/15 09:24:11;;;;;;;11.55;8.15;;;16.20;97.90;;;;;;4877272;29;20105;-83
2022/04/15 09:26:39;;;;;;;11.75;9.27;;;16.30;97.40;;;;;;4878804;29;20135;-82
2022/04/15 09:29:06;;;;;;;11.30;8.30;;;16.30;96.90;;;;;;4877613;29;20049;-82
2022/04/15 09:31:33;;;;;;;10.57;7.55;;;16.30;95.90;;;;;;4869352;29;20414;-82
2022/04/15 09:34:02;;;;;;;13.57;9.60;;;16.40;97.10;;;;;;4868954;29;20053;-80
2022/04/15 09:36:33;;;;;;;11.77;8.40;;;16.40;96.20;;;;;;4868892;29;20492;-80
2022/04/15 09:39:10;;;;;;;11.48;8.60;;;16.50;96.40;;;;;;4865885;29;20555;-81
2022/04/15 09:41:38;;;;;;;9.65;6.88;;;16.40;96.00;;;;;;4875637;29;20106;-83
2022/04/15 09:44:06;;;;;;;11.80;8.10;;;16.50;94.50;;;;;;4877548;29;20148;-79
2022/04/15 09:46:33;;;;;;;9.48;7.07;;;16.40;94.00;;;;;;4879392;29;20495;-80
2022/04/15 09:49:03;;;;;;;10.90;7.40;;;16.50;93.70;;;;;;4869855;29;20122;-80
2022/04/15 09:51:38;;;;;;;9.40;6.35;;;16.60;94.10;;;;;;4870780;29;20060;-82
2022/04/15 09:54:07;;;;;;;12.23;7.25;;;16.80;95.20;;;;;;4863024;29;20396;-80
2022/04/15 09:56:39;;;;;;;10.18;6.35;;;16.80;94.00;;;;;;4869573;29;20061;-81
2022/04/15 09:59:11;;;;;;;10.38;6.80;;;16.90;94.30;;;;;;4873192;29;20045;-81
2022/04/15 10:01:44;;;;;;;10.32;6.65;;;16.90;93.70;;;;;;4868464;29;20046;-81
2022/04/15 10:04:12;;;;;;;9.30;5.97;;;17.00;94.40;;;;;;4867451;29;20049;-81
2022/04/15 10:06:43;;;;;;;10.93;7.80;;;17.00;93.60;;;;;;4875334;29;20049;-79
2022/04/15 10:09:12;;;;;;;12.07;9.20;;;17.00;92.50;;;;;;4867587;29;20084;-81
2022/04/15 10:11:41;;;;;;;9.18;6.90;;;16.90;92.40;;;;;;4877195;29;20056;-85
2022/04/15 10:14:09;;;;;;;9.25;6.95;;;17.10;92.80;;;;;;4869737;29;20105;-84
2022/04/15 10:16:39;;;;;;;8.88;6.32;;;17.20;93.20;;;;;;4871798;29;20049;-82
2022/04/15 10:19:11;;;;;;;9.23;5.70;;;17.40;92.50;;;;;;4870050;29;20052;-83
2022/04/15 10:21:42;;;;;;;10.48;6.78;;;17.40;91.80;;;;;;4876437;29;20055;-86
2022/04/15 10:24:09;;;;;;;10.82;7.28;;;17.40;92.00;;;;;;4879822;29;20049;-87
2022/04/15 10:26:40;;;;;;;8.70;6.43;;;17.30;92.00;;;;;;4871616;29;20068;-87
2022/04/15 10:29:09;;;;;;;9.95;6.90;;;17.30;91.30;;;;;;4880880;29;20059;-88
2022/04/15 10:31:42;;;;;;;9.18;7.10;;;17.30;90.80;;;;;;4881216;29;20140;-88
2022/04/15 10:34:12;;;;;;;11.50;9.02;;;17.40;90.30;;;;;;4880922;29;20100;-87
2022/04/15 10:36:39;;;;;;;12.93;8.18;;;17.40;90.70;;;;;;4872739;29;20053;-88
2022/04/15 10:39:17;;;;;;;11.40;8.40;;;17.40;91.20;;;;;;4862395;29;20505;-89
2022/04/15 10:42:04;;;;;;;12.80;8.50;;;17.50;91.40;;;;;;4862724;29;20050;-88
2022/04/15 10:44:36;;;;;;;10.13;7.93;;;17.50;91.40;;;;;;4861301;29;20088;-88
2022/04/15 10:47:29;;;;;;;9.40;6.78;;;17.50;90.00;;;;;;4862628;29;20092;-88
2022/04/15 10:50:01;;;;;;;10.93;7.87;;;17.70;89.10;;;;;;4856197;29;20045;-87
2022/04/15 10:52:30;;;;;;;9.65;7.68;;;17.70;86.10;;;;;;4862584;29;20057;-88
2022/04/15 10:55:02;;;;;;;9.70;7.28;;;17.70;86.70;;;;;;4862353;29;20057;-88
2022/04/15 10:57:35;;;;;;;10.05;7.85;;;17.90;88.60;;;;;;4862384;29;20105;-87
2022/04/15 11:03:21;;;;;;;9.90;7.50;;;18.20;87.40;;;;;;4805034;29;20092;-88
2022/04/15 11:05:57;;;;;;;11.23;8.80;;;18.10;84.10;;;;;;4805426;29;20047;-88
2022/04/15 11:08:27;;;;;;;10.70;8.02;;;18.00;84.30;;;;;;4837899;29;20049;-89
2022/04/15 11:11:03;;;;;;;9.90;6.85;;;17.80;85.30;;;;;;4861602;29;20160;-88
2022/04/15 11:13:59;;;;;;;8.35;6.35;;;17.80;83.70;;;;;;4861607;29;20102;-88
2022/04/15 11:16:42;;;;;;;9.05;6.85;;;17.80;82.10;;;;;;4852778;29;20136;-88
2022/04/15 11:19:11;;;;;;;7.90;5.45;;;17.90;81.10;;;;;;4860255;29;20053;-87
2022/04/15 11:21:40;;;;;;;7.63;5.50;;;18.00;82.40;;;;;;4845427;29;20053;-89
2022/04/15 11:24:09;;;;;;;7.28;5.30;;;18.20;82.70;;;;;;4861669;29;20054;-86
2022/04/15 11:26:42;;;;;;;10.18;7.13;;;18.30;83.00;;;;;;4872688;29;20411;-87
2022/04/15 11:29:12;;;;;;;9.17;6.23;;;18.20;81.70;;;;;;4878931;29;20085;-89
2022/04/15 11:31:41;;;;;;;9.88;8.05;;;18.30;81.50;;;;;;4849975;29;20045;-89
2022/04/15 11:34:10;;;;;;;11.40;8.52;;;18.10;81.20;;;;;;4862074;29;20534;-88
2022/04/15 11:36:41;;;;;;;8.43;6.45;;;18.00;80.70;;;;;;4874229;29;20049;-87
2022/04/15 11:39:10;;;;;;;8.43;5.78;;;18.10;81.50;;;;;;4879631;29;20100;-88
2022/04/15 11:41:44;;;;;;;11.07;6.38;;;18.20;83.20;;;;;;4863232;29;20442;-85
2022/04/15 11:44:12;;;;;;;7.47;5.30;;;18.30;81.30;;;;;;4876463;29;20148;-84
2022/04/15 11:46:41;;;;;;;8.70;6.10;;;18.40;82.80;;;;;;4876011;29;20314;-84
2022/04/15 11:49:16;;;;;;;9.48;7.05;;;18.50;83.00;;;;;;4876886;29;20064;-85
2022/04/15 11:51:52;;;;;;;8.68;6.20;;;18.40;79.60;;;;;;4877246;29;20131;-86
2022/04/15 11:54:23;;;;;;;9.07;5.53;;;18.30;82.30;;;;;;4875514;29;20117;-86
2022/04/15 11:56:55;;;;;;;7.63;5.50;;;18.30;78.80;;;;;;4858703;29;20407;-88
2022/04/15 11:59:22;;;;;;;8.00;5.45;;;18.40;78.10;;;;;;4859021;29;20062;-86
2022/04/15 12:01:49;;;;;;;8.32;5.95;;;18.60;79.40;;;;;;4858611;29;20405;-86
2022/04/15 12:04:18;;;;;;;6.82;4.70;;;18.70;78.40;;;;;;4857303;29;20057;-92
2022/04/15 12:06:46;;;;;;;8.60;5.18;;;18.70;78.90;;;;;;4874760;29;20109;-87
2022/04/15 12:09:15;;;;;;;7.75;5.15;;;18.70;77.30;;;;;;4860082;29;20068;-84
2022/04/15 12:11:43;;;;;;;9.45;5.80;;;18.70;77.70;;;;;;4875811;29;20063;-85
2022/04/15 12:14:13;;;;;;;8.95;5.93;;;18.70;76.70;;;;;;4875594;29;20136;-85
2022/04/15 12:16:40;;;;;;;8.48;5.85;;;18.70;76.00;;;;;;4875734;29;20053;-86
2022/04/15 12:19:09;;;;;;;9.93;7.25;;;18.70;76.20;;;;;;4875704;29;20053;-85
2022/04/15 12:21:37;;;;;;;10.82;6.20;;;18.80;74.90;;;;;;4874854;29;20132;-85
2022/04/15 12:24:09;;;;;;;8.52;5.63;;;18.70;77.00;;;;;;4875932;29;20419;-85
2022/04/15 12:26:44;;;;;;;10.63;5.65;;;19.00;75.50;;;;;;4858730;29;20144;-85
2022/04/15 12:32:16;;;;;;;7.95;4.00;;;19.20;74.40;;;;;;4873320;29;20505;-86
2022/04/15 12:34:43;;;;;;;8.38;5.32;;;19.30;72.70;;;;;;4875321;29;20049;-84
2022/04/15 12:37:33;;;;;;;8.18;4.53;;;19.00;71.40;;;;;;4876641;29;20064;-86
2022/04/15 12:40:00;;;;;;;6.43;4.63;;;18.90;71.20;;;;;;4876274;29;20406;-86
2022/04/15 12:42:29;;;;;;;9.18;5.45;;;19.10;70.60;;;;;;4875699;29;20151;-90
2022/04/15 12:44:57;;;;;;;6.78;4.35;;;19.20;69.70;;;;;;4869065;29;20550;-88
2022/04/15 12:47:28;;;;;;;6.60;4.13;;;19.70;70.60;;;;;;4864126;29;20049;-89
2022/04/15 12:50:20;;;;;;;7.07;3.97;;;19.90;67.70;;;;;;4878861;29;20053;-91
2022/04/15 12:52:48;;;;;;;9.73;5.10;;;20.00;70.00;;;;;;4879021;29;20053;-90
2022/04/15 12:55:25;;;;;;;8.63;5.88;;;19.90;68.10;;;;;;4876373;29;20065;-89
2022/04/15 12:57:52;;;;;;;10.65;6.15;;;19.70;68.50;;;;;;4861994;29;20466;-90
2022/04/15 13:00:21;;;;;;;7.55;4.72;;;19.50;68.80;;;;;;4871857;29;20134;-91
2022/04/15 13:02:48;;;;;;;7.68;5.15;;;19.80;69.80;;;;;;4860979;29;20049;-89
2022/04/15 13:05:16;;;;;;;7.75;4.82;;;20.20;69.50;;;;;;4877792;29;20141;-89
2022/04/15 13:07:43;;;;;;;7.22;4.03;;;20.40;68.30;;;;;;4879975;29;20064;-87
2022/04/15 13:10:12;;;;;;;7.60;4.95;;;20.50;67.60;;;;;;4879916;29;20148;-87
2022/04/15 13:12:39;;;;;;;6.32;4.20;;;20.30;67.80;;;;;;4863842;29;20057;-87
2022/04/15 13:15:08;;;;;;;6.00;3.80;;;20.50;68.70;;;;;;4880211;29;20052;-87
2022/04/15 13:17:37;;;;;;;5.53;3.80;;;20.90;68.40;;;;;;4879859;29;20053;-87
2022/04/15 13:20:05;;;;;;;7.35;4.10;;;21.20;63.50;;;;;;4878058;29;20063;-86
2022/04/15 13:22:32;;;;;;;6.10;3.97;;;20.80;64.10;;;;;;4883009;29;20063;-87
2022/04/15 13:25:00;;;;;;;5.82;3.42;;;20.60;64.30;;;;;;4873833;29;20057;-87
2022/04/15 13:27:27;;;;;;;7.38;4.00;;;20.90;64.50;;;;;;4863509;29;20515;-88
2022/04/15 13:29:58;;;;;;;6.30;3.38;;;21.30;62.30;;;;;;4867676;29;20061;-88
2022/04/15 13:32:25;;;;;;;8.77;4.20;;;21.50;60.50;;;;;;4873810;29;20084;-87
2022/04/15 13:34:55;;;;;;;7.82;5.30;;;21.60;61.60;;;;;;4871307;29;20049;-90
2022/04/15 13:37:23;;;;;;;7.60;4.25;;;21.60;60.80;;;;;;4857196;29;20149;-89
2022/04/15 13:39:50;;;;;;;8.48;4.95;;;21.80;63.50;;;;;;4874522;29;20032;-90
2022/04/15 13:42:21;;;;;;;6.50;4.22;;;22.10;59.80;;;;;;4880421;29;20143;-87
2022/04/15 13:44:51;;;;;;;6.60;4.13;;;22.10;58.50;;;;;;4895848;29;20061;-88
2022/04/15 13:47:22;;;;;;;6.80;4.35;;;21.70;59.30;;;;;;4878746;29;20091;-87
2022/04/15 13:49:49;;;;;;;6.18;4.07;;;22.30;57.90;;;;;;4889954;29;20065;-89
2022/04/15 13:57:48;;;;;;;6.22;3.97;;;21.70;57.30;;;;;;4876208;29;20423;-85
2022/04/15 14:00:18;;;;;;;7.05;4.60;;;22.20;57.10;;;;;;4855034;29;20053;-84
2022/04/15 14:02:45;;;;;;;5.47;3.08;;;21.50;55.10;;;;;;4876609;29;20489;-84
2022/04/15 14:05:12;;;;;;;5.63;3.10;;;21.80;55.30;;;;;;4876832;29;20053;-85
2022/04/15 14:07:41;;;;;;;6.00;2.75;;;22.00;54.40;;;;;;4860170;29;20526;-85
2022/04/15 14:10:09;;;;;;;5.50;2.72;;;22.30;56.00;;;;;;4866875;29;20048;-84
2022/04/15 14:12:37;;;;;;;5.47;3.30;;;22.30;52.70;;;;;;4861103;29;20130;-85
2022/04/15 14:15:05;;;;;;;4.85;2.90;;;21.90;53.50;;;;;;4871802;29;20053;-85
2022/04/15 14:17:32;;;;;;;4.90;2.80;;;22.30;53.50;;;;;;4877210;29;20052;-85
2022/04/15 14:19:59;;;;;;;5.55;2.83;;;22.50;52.70;;;;;;4862414;29;20056;-84
2022/04/15 14:22:27;;;;;;;5.78;2.53;;;22.50;52.80;;;;;;4869816;29;20576;-84
2022/04/15 14:24:55;;;;;;;5.00;3.03;;;22.00;54.40;;;;;;4862635;29;20430;-83
2022/04/15 14:27:22;;;;;;;5.63;3.10;;;21.70;54.20;;;;;;4871470;29;20052;-83
2022/04/15 14:29:49;;;;;;;4.78;3.08;;;21.70;55.30;;;;;;4879345;29;20051;-83
2022/04/15 14:32:16;;;;;;;4.90;3.05;;;22.00;53.60;;;;;;4862733;29;20056;-83
2022/04/15 14:34:43;;;;;;;5.35;3.28;;;22.10;54.10;;;;;;4863462;29;20060;-83
2022/04/15 14:37:10;;;;;;;6.25;2.70;;;22.40;53.50;;;;;;4862109;29;20082;-83
2022/04/15 14:39:38;;;;;;;4.97;2.20;;;23.00;54.30;;;;;;4862130;29;20068;-84
2022/04/15 14:42:07;;;;;;;5.07;2.80;;;23.90;53.10;;;;;;4870968;29;20049;-82
2022/04/15 14:44:34;;;;;;;5.22;2.80;;;24.30;52.10;;;;;;4863456;29;20455;-83
2022/04/15 14:47:01;;;;;;;4.93;2.30;;;24.00;50.60;;;;;;4873431;29;20053;-82
2022/04/15 14:49:28;;;;;;;5.45;2.70;;;23.70;52.90;;;;;;4873903;29;20053;-81
2022/04/15 14:51:55;;;;;;;5.53;2.65;;;25.00;50.50;;;;;;4875543;29;20060;-83
2022/04/15 14:54:22;;;;;;;4.95;3.13;;;25.70;49.00;;;;;;4876370;29;20057;-83
2022/04/15 14:56:49;;;;;;;5.03;2.97;;;25.00;48.00;;;;;;4869730;29;20156;-82
2022/04/15 14:59:17;;;;;;;4.47;2.50;;;25.60;47.10;;;;;;4861290;29;20056;-81
2022/04/15 15:01:45;;;;;;;5.40;3.15;;;25.10;49.00;;;;;;4877059;29;20168;-82
2022/04/15 15:04:12;;;;;;;6.10;3.03;;;24.90;48.60;;;;;;4878910;29;20057;-79
2022/04/15 15:06:39;;;;;;;4.93;2.55;;;24.50;48.50;;;;;;4879981;29;20045;-80
2022/04/15 15:09:06;;;;;;;4.82;2.35;;;25.00;50.00;;;;;;4879950;29;20045;-82
2022/04/15 15:11:33;;;;;;;5.63;3.00;;;26.00;46.60;;;;;;4874798;29;20053;-83
2022/04/15 15:14:01;;;;;;;4.63;2.60;;;25.70;45.60;;;;;;4867667;29;20054;-85
2022/04/15 15:16:30;;;;;;;3.80;2.20;;;25.70;46.00;;;;;;4861497;29;20049;-82
2022/04/15 15:18:57;;;;;;;5.18;2.50;;;26.10;46.40;;;;;;4874179;29;20054;-87
2022/04/15 15:21:24;;;;;;;5.63;3.17;;;26.90;44.60;;;;;;4878205;29;20055;-85
2022/04/15 15:32:24;;;;;;;4.30;2.30;;;26.00;44.60;;;;;;4855128;29;20053;-83
2022/04/15 15:34:51;;;;;;;3.72;2.00;;;25.30;45.50;;;;;;4860751;29;20064;-82
2022/04/15 15:37:18;;;;;;;4.25;2.35;;;26.00;46.90;;;;;;4860074;29;20045;-83
2022/04/15 15:39:46;;;;;;;4.30;2.10;;;25.90;45.00;;;;;;4860541;29;20053;-81
2022/04/15 15:42:14;;;;;;;3.72;2.20;;;26.50;45.30;;;;;;4868175;29;20049;-80
2022/04/15 15:44:41;;;;;;;3.55;2.00;;;26.90;44.70;;;;;;4869520;29;20057;-79
2022/04/15 15:47:08;;;;;;;4.38;2.00;;;25.80;44.70;;;;;;4875049;29;20444;-80
2022/04/15 15:49:37;;;;;;;3.72;1.83;;;25.50;45.10;;;;;;4862120;29;20149;-79
2022/04/15 15:52:06;;;;;;;4.65;2.47;;;25.50;46.10;;;;;;4867895;29;20535;-78
2022/04/15 15:54:33;;;;;;;3.35;2.05;;;25.40;44.10;;;;;;4875566;29;20108;-79
2022/04/15 15:57:01;;;;;;;5.28;2.33;;;25.10;45.50;;;;;;4863465;29;20045;-78
2022/04/15 15:59:28;;;;;;;4.10;2.10;;;25.70;44.60;;;;;;4878003;29;20414;-80
2022/04/15 16:01:56;;;;;;;4.03;1.90;;;26.30;46.10;;;;;;4861605;29;20061;-80
2022/04/15 16:04:24;;;;;;;4.35;2.08;;;26.30;44.00;;;;;;4876081;29;20053;-81
2022/04/15 16:06:52;;;;;;;3.85;2.20;;;25.40;45.60;;;;;;4864260;29;20508;-79
2022/04/15 16:09:19;;;;;;;4.00;1.80;;;23.80;46.60;;;;;;4874135;29;20045;-80
2022/04/15 16:11:46;;;;;;;4.50;1.90;;;23.80;47.40;;;;;;4878344;29;20395;-79
2022/04/15 16:14:13;;;;;;;4.80;2.00;;;23.60;47.60;;;;;;4874148;29;20056;-82
2022/04/15 16:16:40;;;;;;;4.53;2.28;;;23.80;47.20;;;;;;4861122;29;20053;-83
2022/04/15 16:19:07;;;;;;;4.93;2.10;;;23.20;46.70;;;;;;4861077;29;20396;-79
2022/04/15 16:21:34;;;;;;;3.83;1.80;;;23.40;47.30;;;;;;4870885;29;20045;-79
2022/04/15 16:24:03;;;;;;;3.47;2.00;;;23.00;47.10;;;;;;4877559;29;20056;-79
2022/04/15 16:26:30;;;;;;;3.92;2.00;;;22.60;48.10;;;;;;4867397;29;20061;-80
2022/04/15 16:28:57;;;;;;;3.55;1.85;;;22.60;49.00;;;;;;4870749;29;20521;-80
2022/04/15 16:31:25;;;;;;;4.20;1.95;;;23.10;47.90;;;;;;4875431;29;20053;-84
2022/04/15 16:33:52;;;;;;;4.43;1.88;;;22.60;49.20;;;;;;4877976;29;20068;-84
2022/04/15 16:36:19;;;;;;;5.00;2.05;;;23.20;49.30;;;;;;4860452;29;20053;-80
2022/04/15 16:38:46;;;;;;;3.42;1.70;;;23.40;48.40;;;;;;4865935;29;20056;-79
2022/04/15 16:41:15;;;;;;;4.32;2.08;;;23.00;48.60;;;;;;4868738;29;20049;-79
2022/04/15 16:43:42;;;;;;;4.22;2.00;;;23.30;47.30;;;;;;4871422;29;20053;-80
2022/04/15 16:46:09;;;;;;;4.90;2.42;;;23.40;47.10;;;;;;4882227;29;20056;-80
2022/04/15 16:48:36;;;;;;;3.78;1.90;;;22.80;47.50;;;;;;4864090;29;20108;-80
2022/04/15 16:51:03;;;;;;;4.70;1.70;;;22.90;47.60;;;;;;4863505;29;20053;-83
2022/04/15 16:53:30;;;;;;;4.93;1.80;;;23.40;47.10;;;;;;4865807;29;20060;-85
2022/04/15 16:58:46;;;;;;;4.38;1.58;;;22.90;46.90;;;;;;4863930;29;20060;-85
2022/04/15 17:01:14;;;;;;;3.47;1.50;;;22.90;49.30;;;;;;4863991;29;20061;-85
2022/04/15 17:03:43;;;;;;;3.47;1.60;;;22.60;47.80;;;;;;4879796;29;20049;-84
2022/04/15 17:06:10;;;;;;;3.90;1.55;;;22.90;49.10;;;;;;4882779;29;20055;-84
2022/04/15 17:08:38;;;;;;;3.85;1.58;;;22.30;48.20;;;;;;4869029;29;20046;-90
2022/04/15 17:11:06;;;;;;;3.10;1.50;;;22.70;49.30;;;;;;4863741;29;20649;-81
2022/04/15 17:13:36;;;;;;;4.22;1.52;;;22.10;48.80;;;;;;4875721;29;20403;-81
2022/04/15 17:16:07;;;;;;;2.92;1.50;;;21.80;48.90;;;;;;4881122;29;20409;-82
2022/04/15 17:18:36;;;;;;;2.80;1.40;;;22.10;49.10;;;;;;4871255;29;20049;-82
2022/04/15 17:21:06;;;;;;;3.28;1.58;;;21.50;49.10;;;;;;4862998;29;20061;-82
2022/04/15 17:23:33;;;;;;;4.45;1.40;;;21.30;49.90;;;;;;4866963;29;20118;-81
2022/04/15 17:26:01;;;;;;;3.47;1.67;;;21.30;49.90;;;;;;4875521;29;20054;-76
2022/04/15 17:28:28;;;;;;;3.00;1.40;;;21.10;50.10;;;;;;4863845;29;20053;-83
2022/04/15 17:30:56;;;;;;;2.70;1.30;;;21.30;50.80;;;;;;4865162;29;20056;-81
2022/04/15 17:33:27;;;;;;;3.28;1.40;;;20.80;51.10;;;;;;4881485;29;20045;-81
2022/04/15 17:35:54;;;;;;;3.97;1.42;;;21.10;50.40;;;;;;4880615;29;20045;-80
2022/04/15 17:38:23;;;;;;;2.60;1.30;;;20.50;52.10;;;;;;4868827;29;20507;-87
2022/04/15 17:40:51;;;;;;;2.65;1.33;;;20.20;53.00;;;;;;4862611;29;20053;-86
2022/04/15 17:43:22;;;;;;;3.15;1.20;;;20.30;53.00;;;;;;4862567;29;20053;-86
2022/04/15 17:45:50;;;;;;;3.30;1.40;;;19.90;53.20;;;;;;4863053;29;20046;-87
2022/04/15 17:48:19;;;;;;;3.13;1.42;;;19.80;54.30;;;;;;4865753;29;20136;-80
2022/04/15 17:50:48;;;;;;;3.50;1.50;;;19.60;53.80;;;;;;4862853;29;20400;-83
2022/04/15 17:53:17;;;;;;;3.75;1.50;;;19.90;53.90;;;;;;4870654;29;20060;-86
2022/04/15 17:55:44;;;;;;;4.00;1.40;;;19.70;54.70;;;;;;4871703;29;20049;-83
2022/04/15 17:58:16;;;;;;;3.13;1.40;;;19.70;53.80;;;;;;4881658;29;20049;-80
2022/04/15 18:00:45;;;;;;;2.70;1.42;;;19.50;54.30;;;;;;4868124;29;20428;-87
2022/04/15 18:03:12;;;;;;;3.33;1.20;;;19.40;54.90;;;;;;4872716;29;20061;-86
2022/04/15 18:05:39;;;;;;;3.60;1.30;;;19.40;54.50;;;;;;4879965;29;20059;-85
2022/04/15 18:08:08;;;;;;;3.55;1.40;;;19.20;55.30;;;;;;4880743;29;20400;-82
2022/04/15 18:10:36;;;;;;;2.53;1.23;;;18.90;56.00;;;;;;4880942;29;20487;-84
2022/04/15 18:13:06;;;;;;;3.63;1.20;;;18.90;57.00;;;;;;4876878;29;20053;-86
2022/04/15 18:15:35;;;;;;;3.25;1.33;;;18.80;56.30;;;;;;4872542;29;20058;-83
2022/04/15 18:18:03;;;;;;;2.38;1.10;;;18.40;57.20;;;;;;4862800;29;20056;-81